sensor_id;sensor_type;location;lat;lon;timestamp;temperature;humidity
17954;DHT22;9102;53.548;9.926;2023-06-19T00:00:18;21.50;99.90
17954;DHT22;9102;53.548;9.926;2023-06-19T00:02:45;21.50;99.90
17954;DHT22;9102;53.548;9.926;2023-06-19T00:05:12;21.50;99.90
17954;DHT22;9102;53.548;9.926;2023-06-19T00:07:39;21.50;99.90
17954;DHT22;9102;53.548;9.926;2023-06-19T00:10:06;21.50;99.90
17954;DHT22;9102;53.548;9.926;2023-06-19T00:12:34;21.40;99.90
17954;DHT22;9102;53.548;9.926;2023-06-19T00:15:01;21.40;99.90
17954;DHT22;9102;53.548;9.926;2023-06-19T00:17:29;21.40;99.90
17954;DHT22;9102;53.548;9.926;2023-06-19T00:19:56;21.40;99.90
17954;DHT22;9102;53.548;9.926;2023-06-19T00:22:24;21.30;99.90
17954;DHT22;9102;53.548;9.926;2023-06-19T00:24:51;21.30;99.90
17954;DHT22;9102;53.548;9.926;2023-06-19T00:27:18;21.40;99.90
17954;DHT22;9102;53.548;9.926;2023-06-19T00:29:46;21.40;99.90
17954;DHT22;9102;53.548;9.926;2023-06-19T00:32:13;21.30;99.90
17954;DHT22;9102;53.548;9.926;2023-06-19T00:34:40;21.30;99.90
17954;DHT22;9102;53.548;9.926;2023-06-19T00:37:08;21.30;99.90
17954;DHT22;9102;53.548;9.926;2023-06-19T00:39:38;21.30;99.90
17954;DHT22;9102;53.548;9.926;2023-06-19T00:42:05;21.30;99.90
17954;DHT22;9102;53.548;9.926;2023-06-19T00:44:32;21.30;99.90
17954;DHT22;9102;53.548;9.926;2023-06-19T00:47:02;21.30;99.90
17954;DHT22;9102;53.548;9.926;2023-06-19T00:49:31;21.30;99.90
17954;DHT22;9102;53.548;9.926;2023-06-19T00:51:58;21.30;99.90
17954;DHT22;9102;53.548;9.926;2023-06-19T00:54:25;21.30;99.90
17954;DHT22;9102;53.548;9.926;2023-06-19T00:56:52;21.30;99.90
17954;DHT22;9102;53.548;9.926;2023-06-19T00:59:20;21.30;99.90
17954;DHT22;9102;53.548;9.926;2023-06-19T01:01:48;21.30;99.90
17954;DHT22;9102;53.548;9.926;2023-06-19T01:04:16;21.30;99.90
17954;DHT22;9102;53.548;9.926;2023-06-19T01:06:46;21.20;99.90
17954;DHT22;9102;53.548;9.926;2023-06-19T01:09:17;21.20;99.90
17954;DHT22;9102;53.548;9.926;2023-06-19T01:11:54;21.10;99.90
17954;DHT22;9102;53.548;9.926;2023-06-19T01:14:25;21.20;99.90
17954;DHT22;9102;53.548;9.926;2023-06-19T01:16:53;21.20;99.90
17954;DHT22;9102;53.548;9.926;2023-06-19T01:19:22;21.20;99.90
17954;DHT22;9102;53.548;9.926;2023-06-19T01:21:49;21.20;99.90
17954;DHT22;9102;53.548;9.926;2023-06-19T01:24:17;21.20;99.90
17954;DHT22;9102;53.548;9.926;2023-06-19T01:26:44;21.10;99.90
17954;DHT22;9102;53.548;9.926;2023-06-19T01:29:12;21.10;99.90
17954;DHT22;9102;53.548;9.926;2023-06-19T01:31:46;21.10;99.90
17954;DHT22;9102;53.548;9.926;2023-06-19T01:34:17;21.00;99.90
17954;DHT22;9102;53.548;9.926;2023-06-19T01:36:47;21.00;99.90
17954;DHT22;9102;53.548;9.926;2023-06-19T01:39:16;21.00;99.90
17954;DHT22;9102;53.548;9.926;2023-06-19T01:41:44;21.00;99.90
17954;DHT22;9102;53.548;9.926;2023-06-19T01:44:11;21.00;99.90
17954;DHT22;9102;53.548;9.926;2023-06-19T01:46:38;21.00;99.90
17954;DHT22;9102;53.548;9.926;2023-06-19T01:49:07;20.90;99.90
17954;DHT22;9102;53.548;9.926;2023-06-19T01:51:34;21.00;99.90
17954;DHT22;9102;53.548;9.926;2023-06-19T01:54:01;21.00;99.90
17954;DHT22;9102;53.548;9.926;2023-06-19T01:56:30;20.90;99.90
17954;DHT22;9102;53.548;9.926;2023-06-19T01:58:57;20.90;99.90
17954;DHT22;9102;53.548;9.926;2023-06-19T02:01:25;21.00;99.90
17954;DHT22;9102;53.548;9.926;2023-06-19T02:03:52;21.00;99.90
17954;DHT22;9102;53.548;9.926;2023-06-19T02:06:19;20.90;99.90
17954;DHT22;9102;53.548;9.926;2023-06-19T02:08:46;20.90;99.90
17954;DHT22;9102;53.548;9.926;2023-06-19T02:11:13;21.00;99.90
17954;DHT22;9102;53.548;9.926;2023-06-19T02:13:42;20.90;99.90
17954;DHT22;9102;53.548;9.926;2023-06-19T02:16:09;20.90;99.90
17954;DHT22;9102;53.548;9.926;2023-06-19T02:18:35;20.90;99.90
17954;DHT22;9102;53.548;9.926;2023-06-19T02:21:02;20.90;99.90
17954;DHT22;9102;53.548;9.926;2023-06-19T02:23:29;20.90;99.90
17954;DHT22;9102;53.548;9.926;2023-06-19T02:25:56;20.90;99.90
17954;DHT22;9102;53.548;9.926;2023-06-19T02:28:23;20.80;99.90
17954;DHT22;9102;53.548;9.926;2023-06-19T02:30:53;20.90;99.90
17954;DHT22;9102;53.548;9.926;2023-06-19T02:33:20;20.80;99.90
17954;DHT22;9102;53.548;9.926;2023-06-19T02:35:47;20.90;99.90
17954;DHT22;9102;53.548;9.926;2023-06-19T02:38:14;20.80;99.90
17954;DHT22;9102;53.548;9.926;2023-06-19T02:40:40;20.80;99.90
17954;DHT22;9102;53.548;9.926;2023-06-19T02:43:07;20.80;99.90
17954;DHT22;9102;53.548;9.926;2023-06-19T02:45:34;20.90;99.90
17954;DHT22;9102;53.548;9.926;2023-06-19T02:48:04;20.80;99.90
17954;DHT22;9102;53.548;9.926;2023-06-19T02:50:31;20.90;99.90
17954;DHT22;9102;53.548;9.926;2023-06-19T02:52:57;20.80;99.90
17954;DHT22;9102;53.548;9.926;2023-06-19T02:55:24;20.80;99.90
17954;DHT22;9102;53.548;9.926;2023-06-19T02:57:51;20.80;99.90
17954;DHT22;9102;53.548;9.926;2023-06-19T03:00:18;20.80;99.90
17954;DHT22;9102;53.548;9.926;2023-06-19T03:02:45;20.80;99.90
17954;DHT22;9102;53.548;9.926;2023-06-19T03:05:15;20.80;99.90
17954;DHT22;9102;53.548;9.926;2023-06-19T03:07:42;20.70;99.90
17954;DHT22;9102;53.548;9.926;2023-06-19T03:10:09;20.70;99.90
17954;DHT22;9102;53.548;9.926;2023-06-19T03:12:36;20.70;99.90
17954;DHT22;9102;53.548;9.926;2023-06-19T03:15:03;20.70;99.90
17954;DHT22;9102;53.548;9.926;2023-06-19T03:17:30;20.80;99.90
17954;DHT22;9102;53.548;9.926;2023-06-19T03:19:57;20.80;99.90
17954;DHT22;9102;53.548;9.926;2023-06-19T03:22:25;20.80;99.90
17954;DHT22;9102;53.548;9.926;2023-06-19T03:24:52;20.80;99.90
17954;DHT22;9102;53.548;9.926;2023-06-19T03:27:19;20.70;99.90
17954;DHT22;9102;53.548;9.926;2023-06-19T03:29:45;20.80;99.90
17954;DHT22;9102;53.548;9.926;2023-06-19T03:32:12;20.70;99.90
17954;DHT22;9102;53.548;9.926;2023-06-19T03:34:39;20.70;99.90
17954;DHT22;9102;53.548;9.926;2023-06-19T03:37:06;20.70;99.90
17954;DHT22;9102;53.548;9.926;2023-06-19T03:39:34;20.60;99.90
17954;DHT22;9102;53.548;9.926;2023-06-19T03:42:01;20.70;99.90
17954;DHT22;9102;53.548;9.926;2023-06-19T03:44:28;20.70;99.90
17954;DHT22;9102;53.548;9.926;2023-06-19T03:46:55;20.70;99.90
17954;DHT22;9102;53.548;9.926;2023-06-19T03:49:21;20.80;99.90
17954;DHT22;9102;53.548;9.926;2023-06-19T03:51:48;20.80;99.90
17954;DHT22;9102;53.548;9.926;2023-06-19T03:54:15;20.70;99.90
17954;DHT22;9102;53.548;9.926;2023-06-19T03:56:43;20.70;99.90
17954;DHT22;9102;53.548;9.926;2023-06-19T03:59:10;20.70;99.90
17954;DHT22;9102;53.548;9.926;2023-06-19T04:01:36;20.70;99.90
17954;DHT22;9102;53.548;9.926;2023-06-19T04:04:03;20.80;99.90
17954;DHT22;9102;53.548;9.926;2023-06-19T04:06:30;20.70;99.90
17954;DHT22;9102;53.548;9.926;2023-06-19T04:08:57;20.70;99.90
17954;DHT22;9102;53.548;9.926;2023-06-19T04:11:24;20.80;99.90
17954;DHT22;9102;53.548;9.926;2023-06-19T04:13:52;20.80;99.90
17954;DHT22;9102;53.548;9.926;2023-06-19T04:16:19;20.70;99.90
17954;DHT22;9102;53.548;9.926;2023-06-19T04:18:45;20.70;99.90
17954;DHT22;9102;53.548;9.926;2023-06-19T04:21:13;20.70;99.90
17954;DHT22;9102;53.548;9.926;2023-06-19T04:23:40;20.70;99.90
17954;DHT22;9102;53.548;9.926;2023-06-19T04:26:06;20.70;99.90
17954;DHT22;9102;53.548;9.926;2023-06-19T04:28:33;20.70;99.90
17954;DHT22;9102;53.548;9.926;2023-06-19T04:31:01;20.60;99.90
17954;DHT22;9102;53.548;9.926;2023-06-19T04:33:28;20.60;99.90
17954;DHT22;9102;53.548;9.926;2023-06-19T04:35:56;20.60;99.90
17954;DHT22;9102;53.548;9.926;2023-06-19T04:38:22;20.60;99.90
17954;DHT22;9102;53.548;9.926;2023-06-19T04:40:50;20.60;99.90
17954;DHT22;9102;53.548;9.926;2023-06-19T04:43:17;20.70;99.90
17954;DHT22;9102;53.548;9.926;2023-06-19T04:45:44;20.70;99.90
17954;DHT22;9102;53.548;9.926;2023-06-19T04:48:12;20.70;99.90
17954;DHT22;9102;53.548;9.926;2023-06-19T04:50:39;20.70;99.90
17954;DHT22;9102;53.548;9.926;2023-06-19T04:53:05;20.70;99.90
17954;DHT22;9102;53.548;9.926;2023-06-19T04:55:32;20.70;99.90
17954;DHT22;9102;53.548;9.926;2023-06-19T04:57:59;20.70;99.90
17954;DHT22;9102;53.548;9.926;2023-06-19T05:00:26;20.80;99.90
17954;DHT22;9102;53.548;9.926;2023-06-19T05:02:53;20.80;99.90
17954;DHT22;9102;53.548;9.926;2023-06-19T05:05:25;20.80;99.90
17954;DHT22;9102;53.548;9.926;2023-06-19T05:07:52;20.80;99.90
17954;DHT22;9102;53.548;9.926;2023-06-19T05:10:19;20.90;99.90
17954;DHT22;9102;53.548;9.926;2023-06-19T05:12:45;20.90;99.90
17954;DHT22;9102;53.548;9.926;2023-06-19T05:15:12;20.80;99.90
17954;DHT22;9102;53.548;9.926;2023-06-19T05:17:39;20.90;99.90
17954;DHT22;9102;53.548;9.926;2023-06-19T05:20:07;20.90;99.90
17954;DHT22;9102;53.548;9.926;2023-06-19T05:22:35;20.90;99.90
17954;DHT22;9102;53.548;9.926;2023-06-19T05:25:02;20.90;99.90
17954;DHT22;9102;53.548;9.926;2023-06-19T05:27:29;20.90;99.90
17954;DHT22;9102;53.548;9.926;2023-06-19T05:29:56;20.90;99.90
17954;DHT22;9102;53.548;9.926;2023-06-19T05:32:23;20.90;99.90
17954;DHT22;9102;53.548;9.926;2023-06-19T05:34:50;20.90;99.90
17954;DHT22;9102;53.548;9.926;2023-06-19T05:37:16;20.90;99.90
17954;DHT22;9102;53.548;9.926;2023-06-19T05:39:44;20.90;99.90
17954;DHT22;9102;53.548;9.926;2023-06-19T05:42:11;20.90;99.90
17954;DHT22;9102;53.548;9.926;2023-06-19T05:44:38;20.90;99.90
17954;DHT22;9102;53.548;9.926;2023-06-19T05:47:06;20.90;99.90
17954;DHT22;9102;53.548;9.926;2023-06-19T05:49:33;20.90;99.90
17954;DHT22;9102;53.548;9.926;2023-06-19T05:51:59;20.90;99.90
17954;DHT22;9102;53.548;9.926;2023-06-19T05:54:26;20.90;99.90
17954;DHT22;9102;53.548;9.926;2023-06-19T05:56:54;21.00;99.90
17954;DHT22;9102;53.548;9.926;2023-06-19T05:59:21;21.10;99.90
17954;DHT22;9102;53.548;9.926;2023-06-19T06:01:48;21.10;99.90
17954;DHT22;9102;53.548;9.926;2023-06-19T06:04:16;21.10;99.90
17954;DHT22;9102;53.548;9.926;2023-06-19T06:06:43;21.20;99.90
17954;DHT22;9102;53.548;9.926;2023-06-19T06:09:10;21.20;99.90
17954;DHT22;9102;53.548;9.926;2023-06-19T06:11:37;21.20;99.90
17954;DHT22;9102;53.548;9.926;2023-06-19T06:14:05;21.10;99.90
17954;DHT22;9102;53.548;9.926;2023-06-19T06:16:32;21.00;99.90
17954;DHT22;9102;53.548;9.926;2023-06-19T06:18:59;20.90;99.90
17954;DHT22;9102;53.548;9.926;2023-06-19T06:21:26;20.80;99.90
17954;DHT22;9102;53.548;9.926;2023-06-19T06:23:52;20.60;99.90
17954;DHT22;9102;53.548;9.926;2023-06-19T06:26:20;20.40;99.90
17954;DHT22;9102;53.548;9.926;2023-06-19T06:28:47;20.40;99.90
17954;DHT22;9102;53.548;9.926;2023-06-19T06:31:15;20.50;99.90
17954;DHT22;9102;53.548;9.926;2023-06-19T06:33:42;20.50;99.90
17954;DHT22;9102;53.548;9.926;2023-06-19T06:36:09;20.50;99.90
17954;DHT22;9102;53.548;9.926;2023-06-19T06:38:36;20.50;99.90
17954;DHT22;9102;53.548;9.926;2023-06-19T06:41:03;20.60;99.90
17954;DHT22;9102;53.548;9.926;2023-06-19T06:43:29;20.40;99.90
17954;DHT22;9102;53.548;9.926;2023-06-19T06:45:56;20.30;99.90
17954;DHT22;9102;53.548;9.926;2023-06-19T06:48:24;20.30;99.90
17954;DHT22;9102;53.548;9.926;2023-06-19T06:50:51;20.30;99.90
17954;DHT22;9102;53.548;9.926;2023-06-19T06:53:24;20.30;99.90
17954;DHT22;9102;53.548;9.926;2023-06-19T06:55:53;20.30;99.90
17954;DHT22;9102;53.548;9.926;2023-06-19T06:58:20;20.40;99.90
17954;DHT22;9102;53.548;9.926;2023-06-19T07:00:47;20.40;99.90
17954;DHT22;9102;53.548;9.926;2023-06-19T07:03:14;20.60;99.90
17954;DHT22;9102;53.548;9.926;2023-06-19T07:05:42;20.70;99.90
17954;DHT22;9102;53.548;9.926;2023-06-19T07:08:09;20.90;99.90
17954;DHT22;9102;53.548;9.926;2023-06-19T07:10:35;21.00;99.90
17954;DHT22;9102;53.548;9.926;2023-06-19T07:13:02;21.10;99.90
17954;DHT22;9102;53.548;9.926;2023-06-19T07:15:29;21.20;99.90
17954;DHT22;9102;53.548;9.926;2023-06-19T07:17:56;21.10;99.90
17954;DHT22;9102;53.548;9.926;2023-06-19T07:20:23;21.20;99.90
17954;DHT22;9102;53.548;9.926;2023-06-19T07:22:53;21.20;99.90
17954;DHT22;9102;53.548;9.926;2023-06-19T07:25:20;21.30;99.90
17954;DHT22;9102;53.548;9.926;2023-06-19T07:27:49;21.30;99.90
17954;DHT22;9102;53.548;9.926;2023-06-19T07:30:16;21.40;99.90
17954;DHT22;9102;53.548;9.926;2023-06-19T07:32:43;21.40;99.90
17954;DHT22;9102;53.548;9.926;2023-06-19T07:35:10;21.50;99.90
17954;DHT22;9102;53.548;9.926;2023-06-19T07:37:37;21.60;99.90
17954;DHT22;9102;53.548;9.926;2023-06-19T07:40:06;21.50;99.90
17954;DHT22;9102;53.548;9.926;2023-06-19T07:42:33;21.50;99.90
17954;DHT22;9102;53.548;9.926;2023-06-19T07:45:00;21.60;99.90
17954;DHT22;9102;53.548;9.926;2023-06-19T07:47:27;21.60;99.90
17954;DHT22;9102;53.548;9.926;2023-06-19T07:49:54;21.80;99.90
17954;DHT22;9102;53.548;9.926;2023-06-19T07:52:21;21.90;99.90
17954;DHT22;9102;53.548;9.926;2023-06-19T07:54:50;22.10;99.90
17954;DHT22;9102;53.548;9.926;2023-06-19T07:57:19;22.10;99.90
17954;DHT22;9102;53.548;9.926;2023-06-19T07:59:46;22.30;99.90
17954;DHT22;9102;53.548;9.926;2023-06-19T08:02:12;22.50;99.90
17954;DHT22;9102;53.548;9.926;2023-06-19T08:04:39;22.60;99.90
17954;DHT22;9102;53.548;9.926;2023-06-19T08:07:06;22.60;99.90
17954;DHT22;9102;53.548;9.926;2023-06-19T08:09:33;22.70;99.90
17954;DHT22;9102;53.548;9.926;2023-06-19T08:12:00;22.80;99.90
17954;DHT22;9102;53.548;9.926;2023-06-19T08:14:28;22.90;99.90
17954;DHT22;9102;53.548;9.926;2023-06-19T08:16:55;23.10;99.90
17954;DHT22;9102;53.548;9.926;2023-06-19T08:19:22;23.00;99.90
17954;DHT22;9102;53.548;9.926;2023-06-19T08:21:49;23.00;99.90
17954;DHT22;9102;53.548;9.926;2023-06-19T08:24:15;23.20;99.90
17954;DHT22;9102;53.548;9.926;2023-06-19T08:26:42;23.10;99.90
17954;DHT22;9102;53.548;9.926;2023-06-19T08:29:09;23.20;99.90
17954;DHT22;9102;53.548;9.926;2023-06-19T08:31:37;23.10;99.90
17954;DHT22;9102;53.548;9.926;2023-06-19T08:34:04;23.20;99.90
17954;DHT22;9102;53.548;9.926;2023-06-19T08:36:34;23.40;99.90
17954;DHT22;9102;53.548;9.926;2023-06-19T08:39:02;23.30;99.90
17954;DHT22;9102;53.548;9.926;2023-06-19T08:41:29;23.10;99.90
17954;DHT22;9102;53.548;9.926;2023-06-19T08:43:56;23.20;99.90
17954;DHT22;9102;53.548;9.926;2023-06-19T08:46:23;23.00;99.90
17954;DHT22;9102;53.548;9.926;2023-06-19T08:48:54;23.20;99.90
17954;DHT22;9102;53.548;9.926;2023-06-19T08:51:21;23.20;99.90
17954;DHT22;9102;53.548;9.926;2023-06-19T08:53:53;23.30;99.90
17954;DHT22;9102;53.548;9.926;2023-06-19T08:56:20;23.50;99.90
17954;DHT22;9102;53.548;9.926;2023-06-19T08:58:47;23.60;99.90
17954;DHT22;9102;53.548;9.926;2023-06-19T09:01:17;23.60;99.90
17954;DHT22;9102;53.548;9.926;2023-06-19T09:03:44;23.70;99.90
17954;DHT22;9102;53.548;9.926;2023-06-19T09:06:15;23.80;99.90
17954;DHT22;9102;53.548;9.926;2023-06-19T09:08:42;23.90;99.90
17954;DHT22;9102;53.548;9.926;2023-06-19T09:11:11;23.90;99.90
17954;DHT22;9102;53.548;9.926;2023-06-19T09:13:38;24.00;99.90
17954;DHT22;9102;53.548;9.926;2023-06-19T09:16:06;23.90;99.90
17954;DHT22;9102;53.548;9.926;2023-06-19T09:18:42;23.90;99.90
17954;DHT22;9102;53.548;9.926;2023-06-19T09:21:16;24.30;99.90
17954;DHT22;9102;53.548;9.926;2023-06-19T09:23:43;24.60;99.90
17954;DHT22;9102;53.548;9.926;2023-06-19T09:26:10;24.80;99.90
17954;DHT22;9102;53.548;9.926;2023-06-19T09:28:40;25.00;99.90
17954;DHT22;9102;53.548;9.926;2023-06-19T09:31:08;25.00;99.90
17954;DHT22;9102;53.548;9.926;2023-06-19T09:33:36;25.00;99.90
17954;DHT22;9102;53.548;9.926;2023-06-19T09:36:04;24.80;99.90
17954;DHT22;9102;53.548;9.926;2023-06-19T09:38:34;24.80;99.90
17954;DHT22;9102;53.548;9.926;2023-06-19T09:41:02;24.80;99.90
17954;DHT22;9102;53.548;9.926;2023-06-19T09:43:34;24.90;99.90
17954;DHT22;9102;53.548;9.926;2023-06-19T09:46:02;25.00;99.90
17954;DHT22;9102;53.548;9.926;2023-06-19T09:48:30;24.90;99.90
17954;DHT22;9102;53.548;9.926;2023-06-19T09:51:01;24.90;99.90
17954;DHT22;9102;53.548;9.926;2023-06-19T09:53:29;25.00;99.90
17954;DHT22;9102;53.548;9.926;2023-06-19T09:55:58;25.20;99.90
17954;DHT22;9102;53.548;9.926;2023-06-19T09:58:27;25.30;99.90
17954;DHT22;9102;53.548;9.926;2023-06-19T10:00:54;25.40;99.90
17954;DHT22;9102;53.548;9.926;2023-06-19T10:03:29;25.40;99.90
17954;DHT22;9102;53.548;9.926;2023-06-19T10:05:58;25.40;99.90
17954;DHT22;9102;53.548;9.926;2023-06-19T10:08:29;25.50;99.90
17954;DHT22;9102;53.548;9.926;2023-06-19T10:10:58;25.60;99.90
17954;DHT22;9102;53.548;9.926;2023-06-19T10:13:31;25.70;99.90
17954;DHT22;9102;53.548;9.926;2023-06-19T10:15:59;25.80;99.90
17954;DHT22;9102;53.548;9.926;2023-06-19T10:18:26;25.90;99.90
17954;DHT22;9102;53.548;9.926;2023-06-19T10:20:54;25.90;99.90
17954;DHT22;9102;53.548;9.926;2023-06-19T10:23:23;26.10;99.90
17954;DHT22;9102;53.548;9.926;2023-06-19T10:25:57;26.10;99.90
17954;DHT22;9102;53.548;9.926;2023-06-19T10:28:26;26.00;99.90
17954;DHT22;9102;53.548;9.926;2023-06-19T10:30:54;26.00;99.90
17954;DHT22;9102;53.548;9.926;2023-06-19T10:33:23;26.10;99.90
17954;DHT22;9102;53.548;9.926;2023-06-19T10:35:50;26.00;99.90
17954;DHT22;9102;53.548;9.926;2023-06-19T10:38:17;26.00;99.90
17954;DHT22;9102;53.548;9.926;2023-06-19T10:40:45;26.20;99.90
17954;DHT22;9102;53.548;9.926;2023-06-19T10:43:19;26.20;99.90
17954;DHT22;9102;53.548;9.926;2023-06-19T10:45:46;26.40;99.90
17954;DHT22;9102;53.548;9.926;2023-06-19T10:48:18;26.50;99.90
17954;DHT22;9102;53.548;9.926;2023-06-19T10:50:45;26.50;99.90
17954;DHT22;9102;53.548;9.926;2023-06-19T10:53:23;26.90;99.90
17954;DHT22;9102;53.548;9.926;2023-06-19T10:55:54;27.20;99.90
17954;DHT22;9102;53.548;9.926;2023-06-19T10:58:23;27.50;99.90
17954;DHT22;9102;53.548;9.926;2023-06-19T11:00:49;27.80;99.90
17954;DHT22;9102;53.548;9.926;2023-06-19T11:03:16;27.80;99.90
17954;DHT22;9102;53.548;9.926;2023-06-19T11:05:44;27.80;99.90
17954;DHT22;9102;53.548;9.926;2023-06-19T11:08:17;27.80;99.90
17954;DHT22;9102;53.548;9.926;2023-06-19T11:10:44;27.70;99.90
17954;DHT22;9102;53.548;9.926;2023-06-19T11:13:14;27.50;99.90
17954;DHT22;9102;53.548;9.926;2023-06-19T11:15:43;27.70;99.90
17954;DHT22;9102;53.548;9.926;2023-06-19T11:18:10;27.90;99.90
17954;DHT22;9102;53.548;9.926;2023-06-19T11:20:43;28.00;99.90
17954;DHT22;9102;53.548;9.926;2023-06-19T11:23:12;28.00;99.90
17954;DHT22;9102;53.548;9.926;2023-06-19T11:25:40;28.10;99.90
17954;DHT22;9102;53.548;9.926;2023-06-19T11:28:12;28.20;99.90
17954;DHT22;9102;53.548;9.926;2023-06-19T11:30:41;28.10;99.90
17954;DHT22;9102;53.548;9.926;2023-06-19T11:33:16;28.00;99.90
17954;DHT22;9102;53.548;9.926;2023-06-19T11:35:47;28.10;99.90
17954;DHT22;9102;53.548;9.926;2023-06-19T11:38:17;28.20;99.90
17954;DHT22;9102;53.548;9.926;2023-06-19T11:40:44;28.30;99.90
17954;DHT22;9102;53.548;9.926;2023-06-19T11:43:11;28.10;99.90
17954;DHT22;9102;53.548;9.926;2023-06-19T11:45:47;28.10;99.90
17954;DHT22;9102;53.548;9.926;2023-06-19T11:48:21;28.10;99.90
17954;DHT22;9102;53.548;9.926;2023-06-19T11:50:48;27.90;99.90
17954;DHT22;9102;53.548;9.926;2023-06-19T11:53:16;27.70;99.90
17954;DHT22;9102;53.548;9.926;2023-06-19T11:55:43;27.60;99.90
17954;DHT22;9102;53.548;9.926;2023-06-19T11:58:10;27.70;99.90
17954;DHT22;9102;53.548;9.926;2023-06-19T12:00:37;27.80;99.90
17954;DHT22;9102;53.548;9.926;2023-06-19T12:03:05;27.80;99.90
17954;DHT22;9102;53.548;9.926;2023-06-19T12:05:39;27.80;99.90
17954;DHT22;9102;53.548;9.926;2023-06-19T12:08:06;27.70;99.90
17954;DHT22;9102;53.548;9.926;2023-06-19T12:10:33;27.60;99.90
17954;DHT22;9102;53.548;9.926;2023-06-19T12:13:00;27.70;99.90
17954;DHT22;9102;53.548;9.926;2023-06-19T12:15:27;27.90;99.90
17954;DHT22;9102;53.548;9.926;2023-06-19T12:17:53;28.00;99.90
17954;DHT22;9102;53.548;9.926;2023-06-19T12:20:24;28.40;99.90
17954;DHT22;9102;53.548;9.926;2023-06-19T12:22:51;28.60;99.90
17954;DHT22;9102;53.548;9.926;2023-06-19T12:25:18;28.60;99.90
17954;DHT22;9102;53.548;9.926;2023-06-19T12:27:45;28.50;99.90
17954;DHT22;9102;53.548;9.926;2023-06-19T12:30:15;28.50;99.90
17954;DHT22;9102;53.548;9.926;2023-06-19T12:32:42;28.30;99.90
17954;DHT22;9102;53.548;9.926;2023-06-19T12:35:09;28.30;99.90
17954;DHT22;9102;53.548;9.926;2023-06-19T12:37:37;28.30;99.90
17954;DHT22;9102;53.548;9.926;2023-06-19T12:40:05;28.20;99.90
17954;DHT22;9102;53.548;9.926;2023-06-19T12:42:36;28.20;99.90
17954;DHT22;9102;53.548;9.926;2023-06-19T12:45:03;28.20;99.90
17954;DHT22;9102;53.548;9.926;2023-06-19T12:47:30;28.10;99.90
17954;DHT22;9102;53.548;9.926;2023-06-19T12:49:57;28.30;99.90
17954;DHT22;9102;53.548;9.926;2023-06-19T12:52:23;28.50;99.90
17954;DHT22;9102;53.548;9.926;2023-06-19T12:54:52;28.60;99.90
17954;DHT22;9102;53.548;9.926;2023-06-19T12:57:18;28.60;99.90
17954;DHT22;9102;53.548;9.926;2023-06-19T12:59:45;28.60;99.90
17954;DHT22;9102;53.548;9.926;2023-06-19T13:02:12;28.40;99.90
17954;DHT22;9102;53.548;9.926;2023-06-19T13:04:39;28.10;99.90
17954;DHT22;9102;53.548;9.926;2023-06-19T13:07:05;28.20;99.90
17954;DHT22;9102;53.548;9.926;2023-06-19T13:09:32;28.50;99.90
17954;DHT22;9102;53.548;9.926;2023-06-19T13:12:02;28.80;99.90
17954;DHT22;9102;53.548;9.926;2023-06-19T13:14:29;29.10;99.90
17954;DHT22;9102;53.548;9.926;2023-06-19T13:16:57;29.00;99.90
17954;DHT22;9102;53.548;9.926;2023-06-19T13:19:25;28.70;99.90
17954;DHT22;9102;53.548;9.926;2023-06-19T13:21:52;28.50;99.90
17954;DHT22;9102;53.548;9.926;2023-06-19T13:24:18;28.30;99.90
17954;DHT22;9102;53.548;9.926;2023-06-19T13:26:45;28.50;99.90
17954;DHT22;9102;53.548;9.926;2023-06-19T13:29:15;28.70;99.90
17954;DHT22;9102;53.548;9.926;2023-06-19T13:31:42;28.60;99.90
17954;DHT22;9102;53.548;9.926;2023-06-19T13:34:09;28.60;99.90
17954;DHT22;9102;53.548;9.926;2023-06-19T13:36:36;28.60;99.90
17954;DHT22;9102;53.548;9.926;2023-06-19T13:39:03;28.60;99.90
17954;DHT22;9102;53.548;9.926;2023-06-19T13:41:30;28.40;99.90
17954;DHT22;9102;53.548;9.926;2023-06-19T13:43:58;28.10;99.90
17954;DHT22;9102;53.548;9.926;2023-06-19T13:46:26;28.00;99.90
17954;DHT22;9102;53.548;9.926;2023-06-19T13:48:53;28.00;99.90
17954;DHT22;9102;53.548;9.926;2023-06-19T13:51:22;28.30;99.90
17954;DHT22;9102;53.548;9.926;2023-06-19T13:53:49;28.60;99.90
17954;DHT22;9102;53.548;9.926;2023-06-19T13:56:16;28.70;99.90
17954;DHT22;9102;53.548;9.926;2023-06-19T13:58:43;28.70;99.90
17954;DHT22;9102;53.548;9.926;2023-06-19T14:01:10;28.50;99.90
17954;DHT22;9102;53.548;9.926;2023-06-19T14:03:38;28.20;99.90
17954;DHT22;9102;53.548;9.926;2023-06-19T14:06:05;27.80;99.90
17954;DHT22;9102;53.548;9.926;2023-06-19T14:08:32;27.60;99.90
17954;DHT22;9102;53.548;9.926;2023-06-19T14:10:59;27.50;99.90
17954;DHT22;9102;53.548;9.926;2023-06-19T14:13:26;27.50;99.90
17954;DHT22;9102;53.548;9.926;2023-06-19T14:15:53;27.60;99.90
17954;DHT22;9102;53.548;9.926;2023-06-19T14:18:20;27.70;99.90
17954;DHT22;9102;53.548;9.926;2023-06-19T14:20:48;27.80;99.90
17954;DHT22;9102;53.548;9.926;2023-06-19T14:23:15;27.80;99.90
17954;DHT22;9102;53.548;9.926;2023-06-19T14:25:42;27.90;99.90
17954;DHT22;9102;53.548;9.926;2023-06-19T14:28:09;27.40;99.90
17954;DHT22;9102;53.548;9.926;2023-06-19T14:30:36;27.40;99.90
17954;DHT22;9102;53.548;9.926;2023-06-19T14:33:02;27.50;99.90
17954;DHT22;9102;53.548;9.926;2023-06-19T14:35:29;27.50;99.90
17954;DHT22;9102;53.548;9.926;2023-06-19T14:37:57;27.60;99.90
17954;DHT22;9102;53.548;9.926;2023-06-19T14:40:24;27.50;99.90
17954;DHT22;9102;53.548;9.926;2023-06-19T14:42:51;27.20;99.90
17954;DHT22;9102;53.548;9.926;2023-06-19T14:45:18;27.10;99.90
17954;DHT22;9102;53.548;9.926;2023-06-19T14:47:44;27.00;99.90
17954;DHT22;9102;53.548;9.926;2023-06-19T14:50:11;26.90;99.90
17954;DHT22;9102;53.548;9.926;2023-06-19T14:52:38;26.80;99.90
17954;DHT22;9102;53.548;9.926;2023-06-19T14:55:07;26.70;99.90
17954;DHT22;9102;53.548;9.926;2023-06-19T14:57:35;26.70;99.90
17954;DHT22;9102;53.548;9.926;2023-06-19T15:00:03;26.60;99.90
17954;DHT22;9102;53.548;9.926;2023-06-19T15:02:31;26.50;99.90
17954;DHT22;9102;53.548;9.926;2023-06-19T15:04:57;26.50;99.90
17954;DHT22;9102;53.548;9.926;2023-06-19T15:07:24;26.00;99.90
17954;DHT22;9102;53.548;9.926;2023-06-19T15:09:51;25.80;99.90
17954;DHT22;9102;53.548;9.926;2023-06-19T15:12:19;25.70;99.90
17954;DHT22;9102;53.548;9.926;2023-06-19T15:14:46;25.70;99.90
17954;DHT22;9102;53.548;9.926;2023-06-19T15:17:13;25.60;99.90
17954;DHT22;9102;53.548;9.926;2023-06-19T15:19:40;25.60;99.90
17954;DHT22;9102;53.548;9.926;2023-06-19T15:22:06;25.50;99.90
17954;DHT22;9102;53.548;9.926;2023-06-19T15:24:33;25.70;99.90
17954;DHT22;9102;53.548;9.926;2023-06-19T15:27:00;25.90;99.90
17954;DHT22;9102;53.548;9.926;2023-06-19T15:29:28;26.00;99.90
17954;DHT22;9102;53.548;9.926;2023-06-19T15:31:56;25.90;99.90
17954;DHT22;9102;53.548;9.926;2023-06-19T15:34:22;26.00;99.90
17954;DHT22;9102;53.548;9.926;2023-06-19T15:36:49;26.10;99.90
17954;DHT22;9102;53.548;9.926;2023-06-19T15:39:16;26.10;99.90
17954;DHT22;9102;53.548;9.926;2023-06-19T15:41:44;26.20;99.90
17954;DHT22;9102;53.548;9.926;2023-06-19T15:44:13;26.40;99.90
17954;DHT22;9102;53.548;9.926;2023-06-19T15:46:41;26.40;99.90